.
WxDataArchive / Data Records for 2014-01-12
2014-01-11 January 2014 2014-01-13

Data Records for Sunday, 12 January 2014

Time	Temp	Chill	HIndex	Humid	Dewpt	 Wind 	HiWind	WindDir	Rain 	Barom 
-----	----	-----	------	-----	-----	------	------	-------	-----	----- 
00:00	33.5	33.5	33.5	83	28.9	2	7	248	0.00	29.739 
00:05	33.5	33.5	33.5	82	28.6	1	4	270	0.00	29.739 
00:10	33.5	33.5	33.5	82	28.6	2	4	270	0.00	29.739 
00:15	33.5	33.5	33.5	82	28.6	1	4	270	0.00	29.734 
00:20	33.5	33.5	33.5	82	28.6	2	5	270	0.00	29.734 
00:25	33.5	33.5	33.5	82	28.6	1	5	270	0.00	29.734 
00:30	33.5	33.5	33.5	82	28.6	2	4	270	0.00	29.735 
00:35	33.5	33.5	33.5	82	28.6	1	2	315	0.00	29.735 
00:40	33.4	33.4	33.4	82	28.5	2	4	248	0.00	29.735 
00:45	33.1	33.1	33.1	81	27.9	2	5	292	0.00	29.737 
00:50	32.9	32.9	32.9	82	28.0	1	4	292	0.00	29.737 
00:55	32.8	32.8	32.8	82	27.9	1	5	248	0.00	29.737 
01:00	32.7	32.7	32.7	83	28.1	1	4	270	0.00	29.749 
01:05	32.5	32.5	32.5	84	28.2	1	4	248	0.00	29.749 
01:10	32.4	32.4	32.4	84	28.1	2	5	248	0.00	29.749 
01:15	32.4	32.4	32.4	85	28.4	0	3	270	0.00	29.752 
01:20	32.2	32.2	32.2	85	28.2	1	4	270	0.00	29.752 
01:25	32.1	32.1	32.1	86	28.4	1	3	270	0.00	29.752 
01:30	32.1	32.1	32.1	86	28.4	1	3	270	0.00	29.755 
01:35	31.9	31.9	31.9	87	28.5	1	3	270	0.00	29.755 
01:40	31.9	31.9	31.9	87	28.5	1	3	270	0.00	29.755 
01:45	31.9	31.9	31.9	87	28.5	1	5	270	0.00	29.764 
01:50	31.8	31.8	31.8	87	28.4	1	4	248	0.00	29.764 
01:55	31.8	31.8	31.8	87	28.4	1	5	248	0.00	29.764 
02:00	31.8	31.8	31.8	87	28.4	1	4	270	0.00	29.768 
02:05	31.8	31.8	31.8	87	28.4	1	3	270	0.00	29.768 
02:10	31.8	31.8	31.8	87	28.4	1	4	270	0.00	29.768 
02:15	31.8	31.8	31.8	87	28.4	1	3	248	0.00	29.779 
02:20	31.8	31.8	31.8	87	28.4	1	3	248	0.00	29.779 
02:25	31.8	31.8	31.8	87	28.4	0	2	248	0.00	29.779 
02:30	31.8	31.8	31.8	87	28.4	1	3	248	0.00	29.783 
02:35	31.8	31.8	31.8	87	28.4	0	2	248	0.00	29.783 
02:40	31.9	31.9	31.9	86	28.2	1	3	248	0.00	29.783 
02:45	31.9	31.9	31.9	86	28.2	0	2	248	0.00	29.795 
02:50	31.9	31.9	31.9	86	28.2	1	3	248	0.00	29.795 
02:55	31.9	31.9	31.9	86	28.2	1	4	248	0.00	29.795 
03:00	32.1	32.1	32.1	85	28.1	1	5	270	0.00	29.799 
03:05	32.1	32.1	32.1	85	28.1	0	3	248	0.00	29.799 
03:10	32.1	32.1	32.1	85	28.1	0	2	248	0.00	29.799 
03:15	32.1	32.1	32.1	85	28.1	1	4	270	0.00	29.807 
03:20	32.2	32.2	32.2	84	27.9	1	3	270	0.00	29.807 
03:25	32.2	32.2	32.2	84	27.9	1	2	270	0.00	29.807 
03:30	32.2	32.2	32.2	84	27.9	1	3	292	0.00	29.819 
03:35	32.2	32.2	32.2	84	27.9	2	4	270	0.00	29.819 
03:40	32.2	32.2	32.2	84	27.9	2	4	270	0.00	29.819 
03:45	32.4	32.4	32.4	84	28.1	1	3	270	0.00	29.827 
03:50	32.4	32.4	32.4	83	27.8	1	4	270	0.00	29.827 
03:55	32.4	32.4	32.4	83	27.8	1	3	270	0.00	29.827 
04:00	32.4	32.4	32.4	83	27.8	1	5	270	0.00	29.829 
04:05	32.4	32.4	32.4	83	27.8	1	3	270	0.00	29.829 
04:10	32.4	32.4	32.4	83	27.8	1	2	270	0.00	29.829 
04:15	32.2	32.2	32.2	82	27.3	1	4	270	0.00	29.834 
04:20	32.4	32.4	32.4	82	27.5	1	3	248	0.00	29.834 
04:25	32.4	32.4	32.4	82	27.5	1	4	248	0.00	29.834 
04:30	32.4	32.4	32.4	81	27.2	1	4	248	0.00	29.841 
04:35	32.4	32.4	32.4	81	27.2	2	5	270	0.00	29.841 
04:40	32.4	32.4	32.4	80	26.9	2	5	270	0.00	29.841 
04:45	32.4	32.4	32.4	80	26.9	2	4	270	0.00	29.850 
04:50	32.4	32.4	32.4	80	26.9	2	4	270	0.00	29.850 
04:55	32.4	32.4	32.4	80	26.9	1	3	270	0.00	29.850 
05:00	32.4	32.4	32.4	80	26.9	1	4	270	0.00	29.852 
05:05	32.4	32.4	32.4	80	26.9	2	5	270	0.00	29.852 
05:10	32.4	32.4	32.4	80	26.9	2	5	292	0.00	29.852 
05:15	32.4	32.4	32.4	79	26.6	2	6	292	0.00	29.857 
05:20	32.4	32.4	32.4	79	26.6	2	5	270	0.00	29.857 
05:25	32.2	32.2	32.2	79	26.4	2	4	270	0.00	29.857 
05:30	32.2	32.2	32.2	80	26.7	1	4	270	0.00	29.866 
05:35	32.2	32.2	32.2	80	26.7	1	2	270	0.00	29.866 
05:40	32.2	32.2	32.2	80	26.7	1	4	270	0.00	29.866 
05:45	32.1	32.1	32.1	80	26.6	1	3	292	0.00	29.865 
05:50	32.1	32.1	32.1	80	26.6	0	2	248	0.00	29.865 
05:55	32.1	32.1	32.1	80	26.6	1	4	315	0.00	29.865 
06:00	32.1	32.1	32.1	80	26.6	1	2	315	0.00	29.865 
06:05	32.1	32.1	32.1	80	26.6	0	1	315	0.00	29.865 
06:10	32.1	32.1	32.1	81	26.9	0	1	315	0.00	29.865 
06:15	32.1	32.1	32.1	81	26.9	0	2	315	0.00	29.865 
06:20	32.1	32.1	32.1	81	26.9	0	1	315	0.00	29.865 
06:25	32.1	32.1	32.1	81	26.9	0	2	315	0.00	29.865 
06:30	31.9	31.9	31.9	81	26.7	1	3	248	0.00	29.868 
06:35	31.9	31.9	31.9	81	26.7	0	2	248	0.00	29.868 
06:40	31.9	31.9	31.9	81	26.7	1	4	248	0.00	29.868 
06:45	31.8	31.8	31.8	81	26.6	1	3	248	0.00	29.880 
06:50	31.8	31.8	31.8	81	26.6	0	2	248	0.00	29.880 
06:55	31.8	31.8	31.8	81	26.6	0	3	248	0.00	29.880 
07:00	31.6	31.6	31.6	81	26.5	1	3	248	0.00	29.887 
07:05	31.6	31.6	31.6	81	26.5	0	2	248	0.00	29.887 
07:10	31.5	31.5	31.5	81	26.4	1	3	248	0.00	29.887 
07:15	31.5	31.5	31.5	81	26.4	1	3	248	0.00	29.899 
07:20	31.3	31.3	31.3	80	25.9	0	2	248	0.00	29.899 
07:25	31.3	31.3	31.3	81	26.2	0	4	248	0.00	29.899 
07:30	31.3	31.3	31.3	81	26.2	0	2	248	0.00	29.910 
07:35	31.3	31.3	31.3	81	26.2	1	3	270	0.00	29.910 
07:40	31.3	31.3	31.3	81	26.2	1	3	270	0.00	29.910 
07:45	31.2	31.2	31.2	81	26.1	1	3	270	0.00	29.918 
07:50	31.2	31.2	31.2	81	26.1	1	3	270	0.00	29.918 
07:55	31.0	31.0	31.0	81	25.9	1	5	248	0.00	29.918 
08:00	31.0	31.0	31.0	81	25.9	1	3	248	0.00	29.926 
08:05	30.9	30.9	30.9	81	25.8	0	3	248	0.00	29.926 
08:10	30.9	30.9	30.9	81	25.8	1	4	248	0.00	29.926 
08:15	30.9	30.9	30.9	81	25.8	0	3	248	0.00	29.934 
08:20	30.9	30.9	30.9	82	26.1	0	2	248	0.00	29.934 
08:25	30.9	30.9	30.9	82	26.1	1	3	248	0.00	29.934 
08:30	30.9	30.9	30.9	81	25.8	0	3	248	0.00	29.939 
08:35	30.9	30.9	30.9	81	25.8	1	3	248	0.00	29.939 
08:40	30.9	30.9	30.9	81	25.8	1	4	248	0.00	29.939 
08:45	30.7	30.7	30.7	81	25.6	1	4	248	0.00	29.945 
08:50	30.7	30.7	30.7	81	25.6	1	4	248	0.00	29.945 
08:55	30.7	30.7	30.7	81	25.6	2	5	248	0.00	29.945 
09:00	30.6	30.6	30.6	81	25.5	2	5	248	0.00	29.960 
09:05	30.6	30.6	30.6	81	25.5	2	5	270	0.00	29.960 
09:10	30.7	30.7	30.7	81	25.6	0	2	248	0.00	29.960 
09:15	30.7	30.7	30.7	81	25.6	2	4	248	0.00	29.961 
09:20	30.9	30.9	30.9	81	25.8	0	3	248	0.00	29.961 
09:25	30.9	30.9	30.9	81	25.8	0	3	248	0.00	29.961 
09:30	31.0	31.0	31.0	82	26.2	0	3	248	0.00	29.977 
09:35	31.0	31.0	31.0	81	25.9	1	5	248	0.00	29.977 
09:40	31.0	31.0	31.0	81	25.9	1	4	248	0.00	29.977 
09:45	31.2	31.2	31.2	81	26.1	1	6	270	0.00	29.983 
09:50	31.2	31.2	31.2	81	26.1	2	5	248	0.00	29.983 
09:55	31.2	31.2	31.2	81	26.1	2	5	248	0.00	29.983 
10:00	31.2	31.2	31.2	81	26.1	1	4	248	0.00	29.994 
10:05	31.3	31.3	31.3	81	26.2	1	3	248	0.00	29.994 
10:10	31.3	31.3	31.3	81	26.2	1	4	270	0.00	29.994 
10:15	31.3	31.3	31.3	81	26.2	1	3	248	0.00	29.996 
10:20	31.3	31.3	31.3	81	26.2	2	6	248	0.00	29.996 
10:25	31.5	31.5	31.5	81	26.4	1	5	248	0.00	29.996 
10:30	31.6	31.6	31.6	81	26.5	1	4	248	0.00	30.004 
10:35	31.6	31.6	31.6	81	26.5	0	4	248	0.00	30.004 
10:40	31.6	31.6	31.6	81	26.5	2	4	270	0.00	30.004 
10:45	31.5	31.5	31.5	81	26.4	1	4	248	0.00	30.006 
10:50	31.5	31.5	31.5	81	26.4	1	4	248	0.00	30.006 
10:55	31.6	31.6	31.6	81	26.5	1	6	248	0.00	30.006 
11:00	31.9	31.9	31.9	81	26.7	1	2	248	0.00	30.000 
11:05	32.1	32.1	32.1	81	26.9	2	6	248	0.00	30.000 
11:10	32.1	32.1	32.1	80	26.6	1	4	270	0.00	30.000 
11:15	32.1	32.1	32.1	80	26.6	2	5	248	0.00	30.002 
11:20	32.1	32.1	32.1	80	26.6	1	4	270	0.00	30.002 
11:25	32.1	32.1	32.1	80	26.6	1	5	270	0.00	30.002 
11:30	32.2	32.2	32.2	80	26.7	1	3	270	0.00	29.993 
11:35	32.2	32.2	32.2	81	27.0	0	3	45	0.00	29.993 
11:40	32.4	32.4	32.4	81	27.2	0	4	45	0.00	29.993 
11:45	32.5	32.5	32.5	81	27.3	1	3	45	0.00	29.988 
11:50	32.5	32.5	32.5	80	27.0	1	3	270	0.00	29.988 
11:55	32.5	32.5	32.5	80	27.0	1	4	270	0.00	29.988 
12:00	32.7	32.7	32.7	80	27.2	1	3	270	0.00	29.970 
12:05	32.5	32.5	32.5	81	27.3	0	3	292	0.00	29.970 
12:10	32.5	32.5	32.5	81	27.3	1	4	270	0.00	29.970 
12:15	32.5	32.5	32.5	80	27.0	1	5	270	0.00	29.971 
12:20	32.4	32.4	32.4	80	26.9	1	6	248	0.00	29.971 
12:25	32.4	32.4	32.4	81	27.2	0	3	248	0.00	29.971 
12:30	32.7	32.7	32.7	81	27.5	1	4	45	0.00	29.960 
12:35	32.7	32.7	32.7	80	27.2	2	4	248	0.00	29.960 
12:40	32.5	32.5	32.5	80	27.0	2	6	248	0.00	29.960 
12:45	32.7	32.7	32.7	81	27.5	0	3	248	0.00	29.953 
12:50	32.9	32.9	32.9	81	27.7	0	3	315	0.00	29.953 
12:55	33.2	33.2	33.2	80	27.7	1	6	112	0.00	29.953 
13:00	33.1	33.1	33.1	80	27.6	1	6	68	0.00	29.945 
13:05	33.1	33.1	33.1	80	27.6	2	4	45	0.00	29.945 
13:10	33.1	33.1	33.1	80	27.6	1	4	248	0.00	29.945 
13:15	32.9	32.9	32.9	80	27.4	2	5	68	0.00	29.929 
13:20	32.9	32.9	32.9	81	27.7	1	6	68	0.00	29.929 
13:25	33.2	33.2	33.2	81	28.0	1	3	68	0.00	29.929 
13:30	33.4	33.4	33.4	79	27.6	2	6	112	0.00	29.916 
13:35	33.1	33.1	33.1	80	27.6	2	7	112	0.00	29.916 
13:40	32.9	32.9	32.9	81	27.7	1	6	90	0.00	29.916 
13:45	33.1	33.1	33.1	81	27.9	1	4	68	0.00	29.912 
13:50	33.5	33.5	33.5	80	28.0	2	9	90	0.00	29.912 
13:55	33.8	33.8	33.8	80	28.3	2	5	112	0.00	29.912 
14:00	34.0	34.0	34.0	79	28.2	1	6	90	0.00	29.907 
14:05	34.1	34.1	34.1	79	28.3	3	7	90	0.00	29.907 
14:10	34.1	34.1	34.1	78	28.0	3	6	90	0.00	29.907 
14:15	34.4	34.4	34.4	79	28.6	1	4	112	0.00	29.895 
14:20	34.9	34.9	34.9	78	28.7	1	4	68	0.00	29.895 
14:25	34.9	34.9	34.9	77	28.4	2	9	90	0.00	29.895 
14:30	34.9	34.9	34.9	77	28.4	3	10	90	0.00	29.890 
14:35	34.9	34.9	34.9	77	28.4	1	7	90	0.00	29.890 
14:40	35.2	35.2	35.2	77	28.7	2	6	90	0.00	29.890 
14:45	35.2	35.2	35.2	77	28.7	1	4	90	0.00	29.893 
14:50	35.2	35.2	35.2	77	28.7	2	5	90	0.00	29.893 
14:55	35.3	35.3	35.3	77	28.8	1	4	202	0.00	29.893 
15:00	35.3	35.3	35.3	78	29.1	1	4	112	0.00	29.896 
15:05	35.3	35.3	35.3	78	29.1	2	6	90	0.00	29.896 
15:10	35.3	35.3	35.3	77	28.8	2	5	90	0.00	29.896 
15:15	35.3	35.3	35.3	78	29.1	2	6	90	0.00	29.897 
15:20	35.3	35.3	35.3	77	28.8	2	5	90	0.00	29.897 
15:25	35.3	35.3	35.3	78	29.1	1	5	90	0.00	29.897 
15:30	35.3	35.3	35.3	78	29.1	1	4	90	0.00	29.895 
15:35	35.5	35.5	35.5	78	29.3	1	5	90	0.00	29.895 
15:40	35.6	35.6	35.6	78	29.4	2	4	112	0.00	29.895 
15:45	35.6	35.6	35.6	78	29.4	2	5	90	0.00	29.892 
15:50	35.6	35.6	35.6	78	29.4	1	4	90	0.00	29.892 
15:55	35.8	35.8	35.8	78	29.6	2	5	112	0.00	29.892 
16:00	35.8	35.8	35.8	78	29.6	2	4	112	0.00	29.892 
16:05	35.8	35.8	35.8	78	29.6	1	3	90	0.00	29.892 
16:10	35.8	35.8	35.8	79	29.9	2	5	90	0.00	29.892 
16:15	35.8	35.8	35.8	79	29.9	2	5	90	0.00	29.884 
16:20	35.8	35.8	35.8	79	29.9	1	4	112	0.00	29.884 
16:25	35.8	35.8	35.8	79	29.9	2	6	112	0.00	29.884 
16:30	35.8	35.8	35.8	79	29.9	2	5	112	0.00	29.883 
16:35	35.8	35.8	35.8	79	29.9	1	4	90	0.00	29.883 
16:40	35.8	35.8	35.8	79	29.9	1	3	112	0.00	29.883 
16:45	35.8	35.8	35.8	79	29.9	1	4	90	0.00	29.878 
16:50	35.9	35.9	35.9	79	30.0	1	4	90	0.00	29.878 
16:55	35.9	35.9	35.9	79	30.0	2	5	90	0.00	29.878 
17:00	35.9	35.9	35.9	79	30.0	1	4	90	0.00	29.876 
17:05	35.9	35.9	35.9	79	30.0	1	4	90	0.00	29.876 
17:10	35.9	35.9	35.9	79	30.0	1	5	112	0.00	29.876 
17:15	35.9	35.9	35.9	79	30.0	2	4	112	0.00	29.877 
17:20	35.9	35.9	35.9	79	30.0	2	5	90	0.00	29.877 
17:25	35.9	35.9	35.9	79	30.0	2	6	90	0.00	29.877 
17:30	36.0	36.0	36.0	79	30.1	1	4	68	0.00	29.866 
17:35	36.0	36.0	36.0	79	30.1	2	5	68	0.00	29.866 
17:40	36.0	36.0	36.0	79	30.1	1	4	90	0.00	29.866 
17:45	36.0	36.0	36.0	79	30.1	1	4	90	0.00	29.876 
17:50	36.2	36.2	36.2	79	30.3	1	4	90	0.00	29.876 
17:55	36.2	36.2	36.2	79	30.3	2	4	90	0.00	29.876 
18:00	36.2	36.2	36.2	79	30.3	1	4	90	0.00	29.870 
18:05	36.3	36.3	36.3	79	30.4	2	5	112	0.00	29.870 
18:10	36.3	36.3	36.3	79	30.4	1	5	90	0.00	29.870 
18:15	36.3	36.3	36.3	79	30.4	2	5	90	0.00	29.865 
18:20	36.5	36.5	36.5	79	30.6	2	7	90	0.00	29.865 
18:25	36.5	36.5	36.5	79	30.6	2	5	112	0.00	29.865 
18:30	36.5	36.5	36.5	79	30.6	2	6	112	0.00	29.870 
18:35	36.6	36.6	36.6	78	30.4	3	10	112	0.00	29.870 
18:40	36.8	36.8	36.8	78	30.6	3	7	112	0.00	29.870 
18:45	36.8	36.8	36.8	78	30.6	2	7	90	0.00	29.858 
18:50	36.8	36.8	36.8	78	30.6	3	7	90	0.00	29.858 
18:55	36.8	36.8	36.8	78	30.6	2	6	90	0.00	29.858 
19:00	36.9	36.9	36.9	78	30.7	3	7	112	0.00	29.849 
19:05	36.9	36.9	36.9	78	30.7	3	7	90	0.00	29.849 
19:10	36.9	36.9	36.9	78	30.7	3	11	90	0.00	29.849 
19:15	36.9	36.9	36.9	78	30.7	3	7	90	0.00	29.844 
19:20	36.9	36.9	36.9	78	30.7	2	5	90	0.00	29.844 
19:25	36.8	36.8	36.8	78	30.6	2	4	90	0.00	29.844 
19:30	36.9	36.9	36.9	79	31.0	3	6	90	0.00	29.833 
19:35	37.0	37.0	37.0	78	30.8	2	5	90	0.00	29.833 
19:40	37.0	37.0	37.0	79	31.1	3	6	90	0.00	29.833 
19:45	37.0	37.0	37.0	78	30.8	3	6	90	0.00	29.830 
19:50	37.0	37.0	37.0	78	30.8	3	5	90	0.00	29.830 
19:55	37.2	37.2	37.2	78	31.0	3	6	90	0.00	29.830 
20:00	37.3	37.3	37.3	78	31.1	3	6	90	0.00	29.816 
20:05	37.3	37.3	37.3	77	30.8	2	5	90	0.00	29.816 
20:10	37.3	37.3	37.3	77	30.8	2	7	68	0.00	29.816 
20:15	37.5	37.5	37.5	77	31.0	3	10	90	0.00	29.813 
20:20	37.6	37.6	37.6	77	31.1	2	6	112	0.00	29.813 
20:25	37.6	37.6	37.6	77	31.1	2	5	90	0.00	29.813 
20:30	37.8	37.8	37.8	77	31.2	3	12	90	0.00	29.808 
20:35	37.8	37.8	37.8	76	30.9	3	8	90	0.00	29.808 
20:40	37.9	37.9	37.9	76	31.0	3	7	90	0.00	29.808 
20:45	38.0	38.0	38.0	75	30.8	3	6	90	0.00	29.788 
20:50	38.2	35.2	38.2	75	31.0	4	7	90	0.00	29.788 
20:55	38.3	38.3	38.3	74	30.8	3	10	90	0.00	29.788 
21:00	38.3	38.3	38.3	74	30.8	2	7	90	0.00	29.787 
21:05	38.5	38.5	38.5	74	30.9	3	9	90	0.00	29.787 
21:10	38.6	38.6	38.6	73	30.7	3	7	90	0.00	29.787 
21:15	38.6	38.6	38.6	73	30.7	2	5	90	0.00	29.794 
21:20	38.6	38.6	38.6	73	30.7	1	5	248	0.00	29.794 
21:25	38.6	38.6	38.6	73	30.7	1	3	135	0.00	29.794 
21:30	38.5	38.5	38.5	73	30.6	2	4	90	0.00	29.793 
21:35	38.6	38.6	38.6	73	30.7	2	5	112	0.00	29.793 
21:40	38.6	38.6	38.6	73	30.7	1	5	0	0.00	29.793 
21:45	38.6	38.6	38.6	73	30.7	1	3	338	0.00	29.797 
21:50	38.6	38.6	38.6	73	30.7	1	6	22	0.00	29.797 
21:55	38.8	38.8	38.8	73	30.9	1	6	90	0.00	29.797 
22:00	38.9	38.9	38.9	72	30.7	1	4	292	0.00	29.797 
22:05	38.9	38.9	38.9	72	30.7	1	4	68	0.00	29.797 
22:10	38.8	38.8	38.8	72	30.6	1	3	68	0.00	29.797 
22:15	38.9	38.9	38.9	72	30.7	1	6	112	0.00	29.796 
22:20	38.9	38.9	38.9	72	30.7	1	3	112	0.00	29.796 
22:25	38.9	38.9	38.9	72	30.7	0	2	112	0.00	29.796 
22:30	38.9	38.9	38.9	72	30.7	0	3	112	0.00	29.797 
22:35	38.9	38.9	38.9	72	30.7	0	2	270	0.00	29.797 
22:40	39.1	39.1	39.1	72	30.8	1	5	315	0.00	29.797 
22:45	39.2	39.2	39.2	71	30.6	1	4	248	0.00	29.796 
22:50	39.2	39.2	39.2	71	30.6	1	3	248	0.00	29.796 
22:55	39.3	39.3	39.3	71	30.7	1	4	248	0.00	29.796 
23:00	39.2	39.2	39.2	71	30.6	1	3	270	0.00	29.795 
23:05	39.2	39.2	39.2	71	30.6	0	3	22	0.00	29.795 
23:10	39.2	39.2	39.2	71	30.6	1	2	45	0.00	29.795 
23:15	39.1	39.1	39.1	71	30.5	0	2	45	0.00	29.789 
23:20	39.1	39.1	39.1	71	30.5	1	4	248	0.00	29.789 
23:25	39.2	39.2	39.2	71	30.6	1	3	45	0.00	29.789 
23:30	39.2	39.2	39.2	71	30.6	1	4	68	0.00	29.780 
23:35	39.3	39.3	39.3	71	30.7	1	4	45	0.00	29.780 
23:40	39.3	39.3	39.3	71	30.7	1	3	0	0.00	29.780 
23:45	39.3	39.3	39.3	71	30.7	1	3	45	0.00	29.775 
23:50	39.3	39.3	39.3	71	30.7	1	4	90	0.00	29.775 
23:55	39.5	39.5	39.5	71	30.9	1	4	68	0.00	29.775 

CoCoRaHS
IN-AL-39
A2 Web Hosting
Creative Commons License
GoDaddy
search engine by freefind advanced

loaded 2018-11-13 01:40:25 • last modified 2010-11-18 10:43:29
Privacy PolicyDisclaimer
• wx.awcolley.com is powered by PmWiki v.2002016 •
• all content (unless otherwise noted) © 2018 A W Colley